Time;durP1;ratioP1;P1;durP2;ratioP2;P2;SDS_P1;SDS_P2;PMS_P1;PMS_P2;Temp;Humidity;BMP_temperature;BMP_pressure;BME280_temperature;BME280_humidity;BME280_pressure;Samples;Min_cycle;Max_cycle;Signal;HPM_P1;HPM_P2
2022/05/29 00:01:07;;;;;;;12.77;3.53;;;;;;;;;;6314078;22;20056;-86
2022/05/29 00:03:35;;;;;;;9.55;2.97;;;;;;;;;;6306453;22;20019;-86
2022/05/29 00:06:05;;;;;;;14.90;4.00;;;;;;;;;;6269468;22;20548;-86
2022/05/29 00:08:36;;;;;;;13.60;3.53;;;;;;;;;;6308583;22;20459;-83
2022/05/29 00:11:05;;;;;;;11.93;2.75;;;;;;;;;;6311206;22;20670;-82
2022/05/29 00:13:33;;;;;;;11.35;3.15;;;;;;;;;;6308212;22;20501;-86
2022/05/29 00:16:01;;;;;;;13.55;3.40;;;;;;;;;;6305675;22;20077;-86
2022/05/29 00:18:29;;;;;;;8.90;3.03;;;;;;;;;;6295554;22;20031;-86
2022/05/29 00:21:00;;;;;;;11.63;3.85;;;;;;;;;;6269365;22;20309;-84
2022/05/29 00:23:58;;;;;;;11.38;3.20;;;;;;;;;;6301959;22;20038;-83
2022/05/29 00:26:25;;;;;;;13.80;3.10;;;;;;;;;;6312982;22;20019;-83
2022/05/29 00:28:53;;;;;;;16.63;2.80;;;;;;;;;;6300779;22;20194;-83
2022/05/29 00:31:26;;;;;;;11.52;3.15;;;;;;;;;;6286292;22;20081;-85
2022/05/29 00:33:53;;;;;;;9.57;3.03;;;;;;;;;;6297452;22;20220;-85
2022/05/29 00:36:26;;;;;;;9.05;2.95;;;;;;;;;;6300658;22;20111;-85
2022/05/29 00:38:55;;;;;;;9.43;3.25;;;;;;;;;;6276411;22;20034;-85
2022/05/29 00:41:31;;;;;;;12.25;3.38;;;;;;;;;;6338925;22;20336;-85
2022/05/29 00:44:19;;;;;;;8.35;2.78;;;;;;;;;;6277590;22;20031;-84
2022/05/29 00:46:56;;;;;;;11.13;2.92;;;;;;;;;;6277537;22;20073;-85
2022/05/29 00:49:31;;;;;;;9.63;3.20;;;;;;;;;;6339304;22;20094;-85
2022/05/29 00:52:11;;;;;;;9.48;2.65;;;;;;;;;;6278608;22;20026;-83
2022/05/29 00:57:46;;;;;;;14.07;3.33;;;;;;;;;;6314202;22;20060;-82
2022/05/29 01:00:24;;;;;;;8.18;3.28;;;;;;;;;;6303320;22;20026;-82
2022/05/29 01:02:55;;;;;;;12.43;3.13;;;;;;;;;;6278318;22;20027;-84
2022/05/29 01:05:25;;;;;;;11.38;3.50;;;;;;;;;;6303058;22;20521;-84
2022/05/29 01:08:21;;;;;;;8.38;2.80;;;;;;;;;;6314850;22;20084;-85
2022/05/29 01:11:12;;;;;;;8.45;2.92;;;;;;;;;;6276542;22;20023;-85
2022/05/29 01:14:12;;;;;;;11.43;3.35;;;;;;;;;;6275903;22;20031;-85
2022/05/29 01:17:07;;;;;;;15.70;3.83;;;;;;;;;;6302960;22;20395;-85
2022/05/29 01:20:08;;;;;;;7.03;2.63;;;;;;;;;;6276345;22;20085;-85
2022/05/29 01:23:14;;;;;;;11.23;2.97;;;;;;;;;;6276065;22;20109;-83
2022/05/29 01:25:44;;;;;;;8.13;2.90;;;;;;;;;;6274670;22;20050;-85
2022/05/29 01:28:47;;;;;;;11.30;3.03;;;;;;;;;;6312943;22;20444;-85
2022/05/29 01:31:30;;;;;;;14.18;3.10;;;;;;;;;;6312962;22;20015;-84
2022/05/29 01:34:12;;;;;;;10.85;3.28;;;;;;;;;;6313777;22;20064;-83
2022/05/29 01:37:05;;;;;;;15.48;2.97;;;;;;;;;;6314080;22;20514;-84
2022/05/29 01:39:36;;;;;;;7.93;3.30;;;;;;;;;;6277535;22;20019;-84
2022/05/29 01:42:15;;;;;;;11.00;3.60;;;;;;;;;;6315100;22;20041;-96
2022/05/29 01:45:06;;;;;;;13.52;3.08;;;;;;;;;;6283141;22;20047;-96
2022/05/29 01:47:46;;;;;;;16.20;3.20;;;;;;;;;;6316913;22;20015;-85
2022/05/29 01:50:44;;;;;;;12.95;3.58;;;;;;;;;;6273800;22;20007;-85
2022/05/29 01:53:42;;;;;;;10.68;2.85;;;;;;;;;;6311173;22;20096;-85
2022/05/29 01:56:27;;;;;;;12.85;2.80;;;;;;;;;;6275492;22;20023;-85
2022/05/29 01:59:04;;;;;;;14.18;3.47;;;;;;;;;;6275404;22;20445;-85
2022/05/29 02:01:37;;;;;;;14.40;3.30;;;;;;;;;;6275417;22;20053;-82
2022/05/29 02:04:10;;;;;;;12.93;2.85;;;;;;;;;;6309909;22;20093;-83
2022/05/29 02:09:43;;;;;;;14.98;3.08;;;;;;;;;;6309607;22;20073;-83
2022/05/29 02:12:16;;;;;;;13.80;3.00;;;;;;;;;;6275897;22;20019;-81
2022/05/29 02:14:59;;;;;;;11.80;2.95;;;;;;;;;;6301769;22;20031;-81
2022/05/29 02:17:56;;;;;;;14.13;3.50;;;;;;;;;;6301678;22;20034;-81
2022/05/29 02:20:53;;;;;;;12.77;3.80;;;;;;;;;;6277361;22;20007;-91
2022/05/29 02:23:36;;;;;;;6.97;2.80;;;;;;;;;;6281929;22;20350;-91
2022/05/29 02:26:05;;;;;;;9.55;2.95;;;;;;;;;;6317489;22;20306;-91
2022/05/29 02:28:38;;;;;;;13.48;2.90;;;;;;;;;;6312106;22;20037;-91
2022/05/29 02:31:41;;;;;;;11.43;2.78;;;;;;;;;;6280896;22;20011;-83
2022/05/29 02:34:52;;;;;;;16.70;3.55;;;;;;;;;;6281273;22;20640;-83
2022/05/29 02:37:31;;;;;;;11.52;2.85;;;;;;;;;;6277984;22;20089;-83
2022/05/29 02:40:10;;;;;;;10.45;3.17;;;;;;;;;;6311761;22;20019;-83
2022/05/29 02:42:43;;;;;;;13.02;2.88;;;;;;;;;;6246053;22;20396;-85
2022/05/29 02:45:50;;;;;;;9.15;3.03;;;;;;;;;;6294291;22;20436;-86
2022/05/29 02:48:35;;;;;;;8.95;2.55;;;;;;;;;;6305653;22;20019;-86
2022/05/29 02:51:34;;;;;;;15.82;2.78;;;;;;;;;;6305668;22;20019;-84
2022/05/29 02:54:03;;;;;;;12.15;3.10;;;;;;;;;;6268642;22;20069;-86
2022/05/29 02:56:57;;;;;;;8.45;3.58;;;;;;;;;;6295025;22;20039;-86
2022/05/29 02:59:29;;;;;;;12.43;3.17;;;;;;;;;;6331153;22;20023;-84
2022/05/29 03:02:16;;;;;;;7.90;2.30;;;;;;;;;;6296762;22;20068;-84
2022/05/29 03:05:00;;;;;;;19.05;3.47;;;;;;;;;;6300087;22;20051;-83
2022/05/29 03:07:36;;;;;;;10.45;2.83;;;;;;;;;;6274323;22;20027;-83
2022/05/29 03:10:23;;;;;;;19.48;2.92;;;;;;;;;;6310464;22;20026;-84
2022/05/29 03:13:13;;;;;;;10.38;2.78;;;;;;;;;;6276586;22;20098;-82
2022/05/29 03:16:21;;;;;;;7.93;2.20;;;;;;;;;;6303141;22;20027;-86
2022/05/29 03:19:31;;;;;;;7.78;2.78;;;;;;;;;;6315122;22;20010;-87
2022/05/29 03:22:11;;;;;;;10.10;2.72;;;;;;;;;;6302817;22;20105;-89
2022/05/29 03:24:43;;;;;;;6.68;2.60;;;;;;;;;;6310631;22;20023;-89
2022/05/29 03:27:29;;;;;;;12.80;3.75;;;;;;;;;;6301377;22;20073;-89
2022/05/29 03:30:09;;;;;;;10.18;2.80;;;;;;;;;;6275898;22;20106;-89
2022/05/29 03:32:38;;;;;;;11.60;2.95;;;;;;;;;;6272113;22;20019;-83
2022/05/29 03:35:15;;;;;;;7.93;2.70;;;;;;;;;;6294833;22;20077;-84
2022/05/29 03:37:47;;;;;;;10.38;2.75;;;;;;;;;;6268467;22;20069;-84
2022/05/29 03:40:15;;;;;;;15.02;3.53;;;;;;;;;;6265871;22;20030;-84
2022/05/29 03:42:43;;;;;;;14.73;3.65;;;;;;;;;;6307182;22;20555;-89
2022/05/29 03:45:12;;;;;;;14.02;3.17;;;;;;;;;;6276199;22;20026;-90
2022/05/29 03:47:39;;;;;;;13.80;3.03;;;;;;;;;;6276536;22;20019;-90
2022/05/29 03:50:11;;;;;;;11.55;2.55;;;;;;;;;;6302041;22;20050;-90
2022/05/29 03:52:39;;;;;;;15.25;3.20;;;;;;;;;;6278435;22;20015;-86
2022/05/29 03:55:31;;;;;;;14.70;2.78;;;;;;;;;;6314983;22;20084;-86
2022/05/29 03:57:59;;;;;;;13.75;2.88;;;;;;;;;;6304967;22;20023;-86
2022/05/29 04:00:27;;;;;;;15.13;2.92;;;;;;;;;;6314138;22;20314;-81
2022/05/29 04:02:55;;;;;;;13.93;3.15;;;;;;;;;;6309353;22;20357;-84
2022/05/29 04:05:24;;;;;;;10.25;3.70;;;;;;;;;;6302248;22;20019;-84
2022/05/29 04:13:43;;;;;;;10.93;3.60;;;;;;;;;;6270163;22;20035;-84
2022/05/29 04:16:35;;;;;;;8.02;2.75;;;;;;;;;;6307363;22;20014;-90
2022/05/29 04:19:03;;;;;;;9.18;2.72;;;;;;;;;;6308831;22;20015;-89
2022/05/29 04:21:32;;;;;;;12.73;2.75;;;;;;;;;;6309319;22;20069;-88
2022/05/29 04:23:59;;;;;;;10.35;2.65;;;;;;;;;;6317544;22;20011;-88
2022/05/29 04:26:32;;;;;;;9.65;2.75;;;;;;;;;;6319265;22;20023;-88
2022/05/29 04:29:01;;;;;;;10.60;2.92;;;;;;;;;;6282700;22;20353;-88
2022/05/29 04:34:41;;;;;;;12.10;2.65;;;;;;;;;;6284466;22;20462;-95
2022/05/29 04:37:09;;;;;;;13.98;3.10;;;;;;;;;;6284676;22;20073;-95
2022/05/29 04:40:03;;;;;;;16.70;2.90;;;;;;;;;;6314477;22;20027;-83
2022/05/29 04:42:37;;;;;;;13.57;3.15;;;;;;;;;;6303916;22;20489;-83
2022/05/29 04:45:05;;;;;;;14.43;2.65;;;;;;;;;;6317593;22;20042;-89
2022/05/29 04:47:39;;;;;;;9.82;2.50;;;;;;;;;;6283303;22;20405;-90
2022/05/29 04:50:07;;;;;;;8.95;2.75;;;;;;;;;;6318369;22;20073;-90
2022/05/29 04:52:41;;;;;;;13.32;3.13;;;;;;;;;;6281409;22;20019;-91
2022/05/29 04:55:09;;;;;;;7.63;2.40;;;;;;;;;;6280657;22;20105;-91
2022/05/29 04:57:41;;;;;;;13.98;2.65;;;;;;;;;;6282157;22;20084;-91
2022/05/29 05:00:10;;;;;;;10.60;2.60;;;;;;;;;;6316171;22;20015;-85
2022/05/29 05:02:37;;;;;;;11.32;3.83;;;;;;;;;;6250488;22;20564;-85
2022/05/29 05:05:05;;;;;;;15.00;2.67;;;;;;;;;;6312208;22;20025;-85
2022/05/29 05:07:35;;;;;;;15.25;2.70;;;;;;;;;;6312208;22;20220;-85
2022/05/29 05:10:05;;;;;;;14.65;3.08;;;;;;;;;;6275791;22;20404;-86
2022/05/29 05:12:33;;;;;;;10.57;3.33;;;;;;;;;;6311785;22;20423;-85
2022/05/29 05:15:01;;;;;;;17.27;3.90;;;;;;;;;;6251006;22;20038;-85
2022/05/29 05:17:34;;;;;;;9.98;2.72;;;;;;;;;;6302531;22;20723;-85
2022/05/29 05:20:04;;;;;;;11.38;2.67;;;;;;;;;;6276295;22;20023;-85
2022/05/29 05:22:33;;;;;;;9.98;2.80;;;;;;;;;;6251292;22;20051;-85
2022/05/29 05:28:03;;;;;;;12.18;3.97;;;;;;;;;;6310954;22;20019;-85
2022/05/29 05:30:31;;;;;;;12.07;3.05;;;;;;;;;;6311187;22;20123;-85
2022/05/29 05:32:59;;;;;;;14.40;3.83;;;;;;;;;;6276386;22;20027;-85
2022/05/29 05:35:27;;;;;;;13.77;3.25;;;;;;;;;;6301457;22;20027;-85
2022/05/29 05:37:59;;;;;;;12.38;3.10;;;;;;;;;;6313941;22;20046;-85
2022/05/29 05:40:27;;;;;;;16.38;3.28;;;;;;;;;;6300534;22;20026;-85
2022/05/29 05:42:55;;;;;;;9.43;2.70;;;;;;;;;;6312182;22;20015;-85
2022/05/29 05:45:23;;;;;;;9.65;3.03;;;;;;;;;;6276695;22;20031;-86
2022/05/29 05:47:56;;;;;;;10.98;2.65;;;;;;;;;;6276851;22;20072;-86
2022/05/29 05:50:23;;;;;;;11.23;2.90;;;;;;;;;;6312049;22;20027;-86
2022/05/29 05:52:51;;;;;;;12.68;2.97;;;;;;;;;;6311535;22;20007;-86
2022/05/29 05:55:19;;;;;;;12.20;3.05;;;;;;;;;;6311131;22;20120;-86
2022/05/29 05:58:11;;;;;;;12.18;3.50;;;;;;;;;;6275831;22;20093;-86
2022/05/29 06:00:44;;;;;;;15.05;2.80;;;;;;;;;;6301662;22;20023;-85
2022/05/29 06:03:11;;;;;;;10.77;3.00;;;;;;;;;;6276423;22;20372;-86
2022/05/29 06:05:39;;;;;;;14.80;2.83;;;;;;;;;;6276608;22;20037;-85
2022/05/29 06:08:34;;;;;;;13.90;2.90;;;;;;;;;;6313456;22;20098;-86
2022/05/29 06:11:01;;;;;;;17.83;3.50;;;;;;;;;;6311946;22;20091;-85
2022/05/29 06:13:29;;;;;;;12.63;2.63;;;;;;;;;;6276683;22;20092;-85
2022/05/29 06:16:02;;;;;;;14.88;3.15;;;;;;;;;;6276404;22;20034;-86
2022/05/29 06:18:31;;;;;;;11.00;2.90;;;;;;;;;;6277074;22;20023;-86
2022/05/29 06:21:04;;;;;;;13.70;2.83;;;;;;;;;;6276975;22;20031;-85
2022/05/29 06:23:38;;;;;;;9.13;2.80;;;;;;;;;;6311502;22;20065;-85
2022/05/29 06:26:12;;;;;;;14.95;3.50;;;;;;;;;;6276366;22;20101;-85
2022/05/29 06:28:41;;;;;;;12.77;3.53;;;;;;;;;;6275543;22;20122;-86
2022/05/29 06:31:13;;;;;;;11.82;2.85;;;;;;;;;;6301744;22;20050;-86
2022/05/29 06:33:46;;;;;;;13.57;3.20;;;;;;;;;;6301691;22;20466;-86
2022/05/29 06:36:13;;;;;;;8.85;3.60;;;;;;;;;;6311578;22;20019;-86
2022/05/29 06:38:53;;;;;;;9.68;3.38;;;;;;;;;;6311253;22;20100;-86
2022/05/29 06:41:23;;;;;;;24.65;3.70;;;;;;;;;;6312223;22;20609;-86
2022/05/29 06:43:52;;;;;;;12.98;2.78;;;;;;;;;;6312877;22;20449;-86
2022/05/29 06:46:21;;;;;;;10.65;2.83;;;;;;;;;;6312682;22;20027;-85
2022/05/29 06:48:49;;;;;;;8.10;2.05;;;;;;;;;;6276689;22;20391;-85
2022/05/29 06:51:21;;;;;;;10.48;2.50;;;;;;;;;;6312244;22;20019;-85
2022/05/29 06:53:56;;;;;;;13.45;2.65;;;;;;;;;;6275449;22;20102;-84
2022/05/29 06:56:24;;;;;;;10.57;2.85;;;;;;;;;;6276025;22;20025;-85
2022/05/29 06:59:17;;;;;;;11.55;2.38;;;;;;;;;;6301337;22;20033;-84
2022/05/29 07:07:17;;;;;;;13.98;2.63;;;;;;;;;;6276227;22;20026;-84
2022/05/29 07:09:45;;;;;;;10.13;2.83;;;;;;;;;;6275641;22;20098;-85
2022/05/29 07:12:19;;;;;;;12.00;2.55;;;;;;;;;;6312374;22;20501;-86
2022/05/29 07:14:52;;;;;;;10.05;2.22;;;;;;;;;;6276308;22;20042;-85
2022/05/29 07:17:24;;;;;;;8.55;2.17;;;;;;;;;;6313718;22;20019;-85
2022/05/29 07:19:54;;;;;;;10.32;2.40;;;;;;;;;;6311416;22;20725;-85
2022/05/29 07:22:29;;;;;;;9.68;2.30;;;;;;;;;;6274891;22;20484;-85
2022/05/29 07:24:57;;;;;;;9.23;2.72;;;;;;;;;;6274282;22;20022;-86
2022/05/29 07:27:25;;;;;;;8.73;2.13;;;;;;;;;;6275687;22;20323;-85
2022/05/29 07:29:53;;;;;;;7.57;2.75;;;;;;;;;;6274630;22;20076;-85
2022/05/29 07:32:47;;;;;;;8.82;2.17;;;;;;;;;;6312073;22;20369;-85
2022/05/29 07:35:17;;;;;;;11.48;1.90;;;;;;;;;;6275974;22;20023;-85
2022/05/29 07:37:45;;;;;;;8.18;1.92;;;;;;;;;;6275951;22;20069;-85
2022/05/29 07:40:13;;;;;;;10.65;1.98;;;;;;;;;;6249428;22;20475;-85
2022/05/29 07:45:58;;;;;;;7.95;2.35;;;;;;;;;;6275352;22;20026;-85
2022/05/29 07:48:28;;;;;;;11.55;2.20;;;;;;;;;;6275752;22;20104;-85
2022/05/29 07:51:03;;;;;;;14.70;2.65;;;;;;;;;;6278481;22;20114;-85
2022/05/29 07:53:34;;;;;;;8.93;2.58;;;;;;;;;;6274123;22;20069;-85
2022/05/29 07:56:04;;;;;;;7.80;2.22;;;;;;;;;;6310992;22;20026;-85
2022/05/29 07:58:33;;;;;;;11.50;2.40;;;;;;;;;;6275234;22;20019;-85
2022/05/29 08:01:25;;;;;;;8.35;3.08;;;;;;;;;;6301529;22;20050;-85
2022/05/29 08:03:53;;;;;;;10.80;2.88;;;;;;;;;;6310910;22;20342;-85
2022/05/29 08:06:21;;;;;;;9.93;2.33;;;;;;;;;;6250884;22;20019;-85
2022/05/29 08:08:55;;;;;;;8.15;2.60;;;;;;;;;;6274835;22;20035;-85
2022/05/29 08:11:47;;;;;;;11.90;2.80;;;;;;;;;;6299186;22;20485;-85
2022/05/29 08:14:15;;;;;;;9.65;2.42;;;;;;;;;;6269523;22;20019;-85
2022/05/29 08:16:43;;;;;;;9.02;2.83;;;;;;;;;;6271180;22;20031;-85
2022/05/29 08:19:15;;;;;;;14.02;3.10;;;;;;;;;;6306382;22;20123;-86
2022/05/29 08:21:43;;;;;;;10.98;3.10;;;;;;;;;;6273920;22;20046;-86
2022/05/29 08:30:43;;;;;;;9.30;2.58;;;;;;;;;;6274174;22;20027;-85
2022/05/29 08:33:35;;;;;;;9.02;2.33;;;;;;;;;;6334149;22;20025;-85
2022/05/29 08:36:07;;;;;;;12.02;3.72;;;;;;;;;;6274485;22;20023;-85
2022/05/29 08:38:59;;;;;;;11.02;3.30;;;;;;;;;;6309095;22;20022;-85
2022/05/29 08:41:53;;;;;;;14.82;3.95;;;;;;;;;;6279723;22;20106;-85
2022/05/29 08:44:45;;;;;;;13.43;3.90;;;;;;;;;;6273695;22;20015;-85
2022/05/29 08:47:38;;;;;;;9.38;3.00;;;;;;;;;;6299523;22;20031;-85
2022/05/29 08:50:08;;;;;;;11.80;3.20;;;;;;;;;;6273324;22;20492;-85
2022/05/29 08:53:04;;;;;;;11.77;3.10;;;;;;;;;;6271670;22;20046;-85
2022/05/29 08:56:10;;;;;;;7.78;2.65;;;;;;;;;;6248664;22;20027;-85
2022/05/29 08:58:57;;;;;;;10.05;2.90;;;;;;;;;;6272773;22;20808;-85
2022/05/29 09:01:41;;;;;;;9.57;2.42;;;;;;;;;;6301176;22;20034;-86
2022/05/29 09:04:24;;;;;;;7.05;2.47;;;;;;;;;;6311547;22;20477;-85
2022/05/29 09:06:59;;;;;;;9.38;2.67;;;;;;;;;;6251813;22;20150;-86
2022/05/29 09:09:40;;;;;;;11.82;2.97;;;;;;;;;;6335858;22;20094;-86
2022/05/29 09:12:15;;;;;;;10.90;3.22;;;;;;;;;;6311309;22;20442;-85
2022/05/29 09:14:56;;;;;;;11.85;2.90;;;;;;;;;;6274716;22;20027;-86
2022/05/29 09:17:37;;;;;;;10.23;3.22;;;;;;;;;;6248907;22;20077;-86
2022/05/29 09:20:41;;;;;;;6.85;2.22;;;;;;;;;;6274210;22;20026;-86
2022/05/29 09:23:15;;;;;;;6.88;2.22;;;;;;;;;;6247607;22;20027;-87
2022/05/29 09:25:43;;;;;;;10.40;2.50;;;;;;;;;;6333940;22;20026;-86
2022/05/29 09:29:08;;;;;;;9.68;2.88;;;;;;;;;;6278682;22;20037;-86
2022/05/29 09:31:38;;;;;;;8.18;2.55;;;;;;;;;;6335536;22;20019;-85
2022/05/29 09:34:31;;;;;;;15.13;2.65;;;;;;;;;;6331190;22;20018;-86
2022/05/29 09:37:17;;;;;;;7.85;2.10;;;;;;;;;;6275962;22;20049;-86
2022/05/29 09:39:56;;;;;;;9.35;1.75;;;;;;;;;;6311835;22;20015;-87
2022/05/29 09:42:34;;;;;;;12.18;2.60;;;;;;;;;;6313031;22;20023;-86
2022/05/29 09:45:32;;;;;;;6.85;2.17;;;;;;;;;;6302144;22;20034;-87
2022/05/29 09:51:48;;;;;;;10.02;3.15;;;;;;;;;;6312854;22;20007;-87
2022/05/29 09:54:55;;;;;;;6.25;1.90;;;;;;;;;;6301815;22;20381;-87
2022/05/29 09:57:29;;;;;;;9.57;2.50;;;;;;;;;;6277052;22;20031;-87
2022/05/29 10:00:15;;;;;;;9.55;2.20;;;;;;;;;;6302521;22;20429;-87
2022/05/29 10:02:47;;;;;;;7.70;2.42;;;;;;;;;;6313094;22;20386;-87
2022/05/29 10:05:33;;;;;;;7.75;2.08;;;;;;;;;;6276353;22;20023;-87
2022/05/29 10:08:18;;;;;;;6.00;1.63;;;;;;;;;;6313089;22;20018;-87
2022/05/29 10:10:45;;;;;;;5.68;1.75;;;;;;;;;;6311585;22;20442;-87
2022/05/29 10:13:37;;;;;;;6.03;1.85;;;;;;;;;;6313146;22;20030;-87
2022/05/29 10:16:06;;;;;;;6.85;1.83;;;;;;;;;;6301843;22;20106;-87
2022/05/29 10:18:41;;;;;;;6.75;2.03;;;;;;;;;;6312817;22;20023;-87
2022/05/29 10:21:15;;;;;;;5.85;1.73;;;;;;;;;;6302093;22;20035;-87
2022/05/29 10:23:53;;;;;;;7.43;1.70;;;;;;;;;;6312188;22;20021;-87
2022/05/29 10:26:31;;;;;;;4.93;1.70;;;;;;;;;;6312820;22;20011;-87
2022/05/29 10:29:12;;;;;;;7.70;1.60;;;;;;;;;;6276106;22;20142;-87
2022/05/29 10:31:40;;;;;;;5.43;1.58;;;;;;;;;;6312376;22;20036;-87
2022/05/29 10:34:11;;;;;;;4.97;1.40;;;;;;;;;;6301519;22;20089;-87
2022/05/29 10:36:40;;;;;;;9.27;1.95;;;;;;;;;;6276541;22;20031;-86
2022/05/29 10:39:12;;;;;;;8.05;2.08;;;;;;;;;;6311528;22;20019;-87
2022/05/29 10:41:42;;;;;;;7.38;1.83;;;;;;;;;;6287256;22;20030;-87
2022/05/29 10:44:33;;;;;;;8.00;2.20;;;;;;;;;;6312465;22;20380;-87
2022/05/29 10:47:16;;;;;;;6.68;2.10;;;;;;;;;;6338138;22;20024;-87
2022/05/29 10:50:08;;;;;;;8.95;2.13;;;;;;;;;;6312365;22;20064;-87
2022/05/29 10:52:59;;;;;;;10.60;2.40;;;;;;;;;;6290955;22;20011;-87
2022/05/29 10:56:06;;;;;;;7.78;2.00;;;;;;;;;;6312138;22;20335;-87
2022/05/29 10:58:51;;;;;;;8.07;1.60;;;;;;;;;;6275846;22;20024;-87
2022/05/29 11:04:45;;;;;;;9.40;2.00;;;;;;;;;;6313425;22;20341;-87
2022/05/29 11:07:36;;;;;;;8.50;2.30;;;;;;;;;;6312632;22;20019;-87
2022/05/29 11:11:06;;;;;;;9.67;2.23;;;;;;;;;;6301107;22;20031;-88
2022/05/29 11:14:25;;;;;;;6.88;1.90;;;;;;;;;;6312245;22;20118;-87
2022/05/29 11:17:18;;;;;;;8.73;1.90;;;;;;;;;;6313715;22;20023;-88
2022/05/29 11:20:30;;;;;;;10.57;2.45;;;;;;;;;;6281068;22;20023;-88
2022/05/29 11:23:17;;;;;;;8.05;2.05;;;;;;;;;;6301339;22;20076;-88
2022/05/29 11:26:04;;;;;;;4.43;1.95;;;;;;;;;;6275174;22;20023;-88
2022/05/29 11:28:56;;;;;;;6.10;1.80;;;;;;;;;;6276075;22;20072;-87
2022/05/29 11:31:55;;;;;;;4.93;1.70;;;;;;;;;;6312393;22;20544;-87
2022/05/29 11:34:32;;;;;;;5.38;1.85;;;;;;;;;;6301703;22;20023;-87
2022/05/29 11:37:26;;;;;;;9.20;1.92;;;;;;;;;;6312642;22;20019;-87
2022/05/29 11:40:09;;;;;;;11.30;2.08;;;;;;;;;;6300843;22;20034;-87
2022/05/29 11:43:09;;;;;;;8.23;1.98;;;;;;;;;;6275747;22;20021;-88
2022/05/29 11:54:40;;;;;;;5.40;1.73;;;;;;;;;;6275246;22;20027;-88
2022/05/29 11:57:14;;;;;;;4.70;1.65;;;;;;;;;;6276352;22;20077;-88
2022/05/29 11:59:52;;;;;;;6.10;1.88;;;;;;;;;;6337974;22;20025;-88
2022/05/29 12:02:25;;;;;;;6.28;1.60;;;;;;;;;;6275476;22;20035;-88
2022/05/29 12:05:01;;;;;;;6.90;1.90;;;;;;;;;;6275381;22;20027;-88
2022/05/29 12:07:38;;;;;;;9.85;2.60;;;;;;;;;;6311531;22;20110;-87
2022/05/29 12:10:18;;;;;;;8.73;2.33;;;;;;;;;;6274378;22;20019;-88
2022/05/29 12:12:57;;;;;;;5.65;1.70;;;;;;;;;;6301039;22;20035;-88
2022/05/29 12:15:59;;;;;;;6.40;1.50;;;;;;;;;;6300660;22;20457;-87
2022/05/29 12:18:38;;;;;;;6.20;1.63;;;;;;;;;;6300789;22;20024;-87
2022/05/29 12:21:22;;;;;;;6.28;1.90;;;;;;;;;;6334853;22;20433;-88
2022/05/29 12:23:56;;;;;;;8.32;2.35;;;;;;;;;;6275213;22;20110;-89
2022/05/29 12:26:32;;;;;;;5.20;1.85;;;;;;;;;;6250102;22;20027;-88
2022/05/29 12:29:15;;;;;;;9.43;2.10;;;;;;;;;;6305617;22;20022;-88
2022/05/29 12:31:58;;;;;;;13.75;2.00;;;;;;;;;;6337243;22;20477;-88
2022/05/29 12:35:10;;;;;;;8.10;2.17;;;;;;;;;;6282550;22;20483;-84
2022/05/29 12:38:21;;;;;;;9.40;1.90;;;;;;;;;;6254731;22;20038;-84
2022/05/29 12:41:20;;;;;;;8.40;2.00;;;;;;;;;;6314064;22;20022;-86
2022/05/29 12:44:13;;;;;;;10.82;2.75;;;;;;;;;;6253025;22;20022;-86
2022/05/29 12:47:04;;;;;;;7.70;1.90;;;;;;;;;;6288741;22;20023;-86
2022/05/29 12:49:31;;;;;;;8.88;2.15;;;;;;;;;;6250378;23;20027;-87
2022/05/29 12:52:24;;;;;;;8.32;2.20;;;;;;;;;;6192355;23;20466;-86
2022/05/29 12:55:01;;;;;;;5.88;1.52;;;;;;;;;;6191865;23;20042;-86
2022/05/29 12:58:00;;;;;;;9.45;2.10;;;;;;;;;;6192163;23;20023;-86
2022/05/29 13:00:35;;;;;;;7.60;1.90;;;;;;;;;;6225594;23;20024;-86
2022/05/29 13:03:21;;;;;;;6.85;2.05;;;;;;;;;;6215320;23;20034;-86
2022/05/29 13:06:47;;;;;;;7.80;2.50;;;;;;;;;;6195828;23;20016;-86
2022/05/29 13:10:04;;;;;;;7.93;1.88;;;;;;;;;;6250007;23;20019;-87
2022/05/29 13:13:06;;;;;;;6.05;2.03;;;;;;;;;;6189865;23;20020;-86
2022/05/29 13:15:41;;;;;;;4.32;1.45;;;;;;;;;;6201273;23;20061;-87
2022/05/29 13:18:09;;;;;;;6.45;1.75;;;;;;;;;;6250574;23;20510;-87
2022/05/29 13:21:04;;;;;;;6.70;1.40;;;;;;;;;;6214523;23;20045;-87
2022/05/29 13:23:34;;;;;;;6.82;1.80;;;;;;;;;;6225916;23;20020;-87
2022/05/29 13:26:07;;;;;;;5.38;1.67;;;;;;;;;;6242734;22;20032;-86
2022/05/29 13:28:43;;;;;;;4.50;1.42;;;;;;;;;;6313592;22;20537;-87
2022/05/29 13:31:14;;;;;;;5.80;1.70;;;;;;;;;;6313219;22;20094;-88
2022/05/29 13:34:28;;;;;;;6.25;1.98;;;;;;;;;;6333902;22;20026;-87
2022/05/29 13:37:02;;;;;;;8.23;2.00;;;;;;;;;;6313738;22;20472;-86
2022/05/29 13:39:36;;;;;;;5.28;1.90;;;;;;;;;;6312856;22;20016;-87
2022/05/29 13:42:22;;;;;;;6.78;1.65;;;;;;;;;;6313830;22;20086;-87
2022/05/29 13:44:51;;;;;;;7.07;1.90;;;;;;;;;;6313304;22;20023;-86
2022/05/29 13:47:36;;;;;;;7.28;1.67;;;;;;;;;;6277854;22;20122;-86
2022/05/29 13:50:12;;;;;;;7.05;2.00;;;;;;;;;;6302702;22;20023;-86
2022/05/29 13:52:42;;;;;;;7.85;1.50;;;;;;;;;;6312976;22;20029;-86
2022/05/29 13:55:16;;;;;;;5.05;1.70;;;;;;;;;;6281031;22;20027;-84
2022/05/29 14:03:58;;;;;;;3.97;1.50;;;;;;;;;;6305402;22;20111;-85
2022/05/29 14:07:31;;;;;;;5.05;1.60;;;;;;;;;;6316715;22;20015;-84
2022/05/29 14:10:29;;;;;;;5.15;1.50;;;;;;;;;;6253369;23;20055;-85
2022/05/29 14:13:43;;;;;;;7.13;1.65;;;;;;;;;;6157413;23;20028;-86
2022/05/29 14:16:30;;;;;;;4.88;1.27;;;;;;;;;;6161697;23;20029;-85
2022/05/29 14:19:24;;;;;;;8.88;1.70;;;;;;;;;;6103894;23;20029;-85
2022/05/29 14:22:11;;;;;;;6.88;1.90;;;;;;;;;;6138132;23;20056;-86
2022/05/29 14:25:01;;;;;;;5.75;1.60;;;;;;;;;;6138000;23;20021;-85
2022/05/29 14:27:33;;;;;;;7.78;1.33;;;;;;;;;;6103802;23;20025;-86
2022/05/29 14:30:34;;;;;;;4.55;1.48;;;;;;;;;;6102856;23;20029;-85
2022/05/29 14:33:40;;;;;;;6.10;1.60;;;;;;;;;;6162689;23;20034;-85
2022/05/29 14:36:24;;;;;;;10.43;1.63;;;;;;;;;;6137614;23;20096;-85
2022/05/29 14:39:11;;;;;;;9.30;2.22;;;;;;;;;;6161222;23;20029;-85
2022/05/29 14:41:56;;;;;;;7.35;1.60;;;;;;;;;;6151595;23;20025;-85
2022/05/29 14:44:43;;;;;;;3.60;1.85;;;;;;;;;;6103211;23;20034;-85
2022/05/29 14:47:15;;;;;;;3.80;1.50;;;;;;;;;;6184047;23;20187;-85
2022/05/29 14:50:07;;;;;;;4.72;1.58;;;;;;;;;;6265496;22;20428;-85
2022/05/29 14:52:44;;;;;;;4.28;1.30;;;;;;;;;;6314548;22;20019;-84
2022/05/29 14:55:14;;;;;;;4.60;1.30;;;;;;;;;;6278255;22;20092;-85
2022/05/29 14:58:07;;;;;;;4.07;1.52;;;;;;;;;;6278590;22;20100;-85
2022/05/29 15:00:41;;;;;;;5.07;1.48;;;;;;;;;;6278658;22;20023;-85
2022/05/29 15:03:24;;;;;;;5.68;1.30;;;;;;;;;;6317873;22;20015;-84
2022/05/29 15:06:00;;;;;;;7.38;1.52;;;;;;;;;;6313983;22;20069;-85
2022/05/29 15:11:42;;;;;;;6.50;1.50;;;;;;;;;;6312291;22;20077;-85
2022/05/29 15:14:13;;;;;;;6.78;1.63;;;;;;;;;;6277711;22;20637;-85
2022/05/29 15:17:07;;;;;;;6.70;1.55;;;;;;;;;;6315273;22;20109;-85
2022/05/29 15:25:39;;;;;;;5.88;1.65;;;;;;;;;;6278443;22;20027;-85
2022/05/29 15:28:08;;;;;;;5.13;1.40;;;;;;;;;;6278690;22;20066;-91
2022/05/29 15:30:40;;;;;;;6.47;2.08;;;;;;;;;;6244959;22;20020;-87
2022/05/29 15:33:12;;;;;;;3.92;1.35;;;;;;;;;;6195341;22;20675;-88
2022/05/29 15:35:59;;;;;;;9.10;1.80;;;;;;;;;;6280671;22;20134;-88
2022/05/29 15:38:58;;;;;;;4.72;1.50;;;;;;;;;;6199711;22;20012;-88
2022/05/29 15:41:49;;;;;;;4.03;1.75;;;;;;;;;;6220124;22;20130;-88
2022/05/29 15:44:39;;;;;;;6.65;1.52;;;;;;;;;;6255186;22;20034;-86
2022/05/29 15:47:23;;;;;;;5.47;1.63;;;;;;;;;;6280130;22;20019;-88
2022/05/29 15:50:31;;;;;;;4.90;1.30;;;;;;;;;;6275086;22;20035;-88
2022/05/29 15:53:17;;;;;;;7.68;1.50;;;;;;;;;;6254538;22;20062;-86
2022/05/29 15:56:03;;;;;;;5.32;1.45;;;;;;;;;;6279094;22;20027;-86
2022/05/29 15:58:44;;;;;;;6.88;1.95;;;;;;;;;;6218845;22;20768;-88
2022/05/29 16:01:14;;;;;;;5.10;1.58;;;;;;;;;;6258254;22;20055;-86
2022/05/29 16:03:44;;;;;;;5.78;1.63;;;;;;;;;;6287650;22;20019;-88
2022/05/29 16:06:42;;;;;;;7.75;1.75;;;;;;;;;;6301794;22;20837;-87
2022/05/29 16:09:53;;;;;;;4.68;1.50;;;;;;;;;;6313527;22;20007;-86
2022/05/29 16:12:52;;;;;;;5.95;1.50;;;;;;;;;;6286275;22;20113;-94
2022/05/29 16:15:45;;;;;;;10.80;1.83;;;;;;;;;;6310898;22;20442;-94
2022/05/29 16:18:46;;;;;;;9.50;1.65;;;;;;;;;;6287495;22;20023;-91
2022/05/29 16:21:33;;;;;;;7.13;1.70;;;;;;;;;;6288082;22;20085;-91
2022/05/29 16:24:13;;;;;;;7.30;2.05;;;;;;;;;;6323645;22;20034;-92
2022/05/29 16:26:57;;;;;;;7.68;2.13;;;;;;;;;;6287393;22;20026;-93
2022/05/29 16:29:40;;;;;;;13.25;2.58;;;;;;;;;;6287928;22;20069;-94
2022/05/29 16:32:28;;;;;;;6.90;1.80;;;;;;;;;;6323604;22;20015;-92
2022/05/29 16:35:44;;;;;;;12.98;2.35;;;;;;;;;;6255155;22;20020;-94
2022/05/29 16:50:25;;;;;;;10.80;2.10;;;;;;;;;;6230288;22;20019;-93
2022/05/29 16:53:11;;;;;;;8.20;2.03;;;;;;;;;;6230940;22;20020;-95
2022/05/29 16:56:11;;;;;;;10.43;1.90;;;;;;;;;;6230596;22;20106;-94
2022/05/29 16:59:15;;;;;;;10.55;1.80;;;;;;;;;;6235898;22;20031;-94
2022/05/29 17:02:43;;;;;;;7.05;1.95;;;;;;;;;;6237572;22;20069;-92
2022/05/29 17:05:14;;;;;;;14.90;2.88;;;;;;;;;;6142200;23;20088;-91
2022/05/29 17:07:50;;;;;;;15.05;2.33;;;;;;;;;;6176063;23;20099;-94
2022/05/29 17:10:22;;;;;;;10.02;1.77;;;;;;;;;;6140842;23;20035;-92
2022/05/29 17:12:49;;;;;;;9.00;2.65;;;;;;;;;;6180342;23;20024;-92
2022/05/29 17:15:25;;;;;;;13.30;2.38;;;;;;;;;;6225263;23;20026;-93